Smit Barbados — MSDU8 — position and weather

sailwx.info

Track history (hours):
 
Tides and Currents Weather Stations Pressure Air Temp Water Temp Dewpoint Dewpoint Depression Visibility Wind Speed Wind Dir Waves Ship Positions

Smit Barbados

Last reported at 2018-Jan-19 15:30 UTC. Time now 2018-Jan-19 15:44 UTC.
Position N 53°26' W 002°60'.

Length 30 m; draft 4.8 m.

Type: Tug. MMSI: 235055303.

Date/timePositionNaut miles runAvg speedWind from/ knotsBaromVisibWave heightAir tempDewpointWater temp
2018-Jan-19 15:30N 53°26' W 002°60'0 0.0
2018-Jan-19 15:00N 53°26' W 002°60'0 0.0
2018-Jan-19 14:30N 53°26' W 002°60'0 0.0
2018-Jan-19 14:00N 53°26' W 002°60'0 0.0
2018-Jan-19 13:30N 53°26' W 002°60'0 0.0
2018-Jan-19 13:00N 53°26' W 002°60'0 0.0
2018-Jan-19 12:29N 53°26' W 002°60'0 0.0
2018-Jan-19 11:59N 53°26' W 002°60'0 0.0
2018-Jan-19 11:30N 53°26' W 002°60'0 0.0
2018-Jan-19 11:00N 53°26' W 002°60'0 0.0
2018-Jan-19 10:30N 53°26' W 002°60'0 0.0
2018-Jan-19 10:01N 53°26' W 002°60'0 0.0
2018-Jan-19 09:31N 53°26' W 002°60'0 0.0
2018-Jan-19 09:00N 53°26' W 002°60'0 0.0
2018-Jan-19 08:30N 53°26' W 002°60'0 0.0
2018-Jan-19 08:00N 53°26' W 002°60'0 0.0
2018-Jan-19 07:30N 53°26' W 002°60'0 0.0
2018-Jan-19 07:00N 53°26' W 002°60'0 0.0
2018-Jan-19 06:30N 53°26' W 002°60'0 0.0
2018-Jan-19 05:58N 53°26' W 002°60'0 0.0
2018-Jan-19 05:30N 53°26' W 002°60'0 0.0
2018-Jan-19 05:01N 53°26' W 002°60'0 0.0
2018-Jan-19 04:31N 53°26' W 002°60'0 0.0
2018-Jan-19 04:00N 53°26' W 002°60'0 0.0
2018-Jan-19 03:30N 53°26' W 002°60'0 0.0
2018-Jan-19 03:00N 53°26' W 002°60'0 0.0
2018-Jan-19 02:30N 53°26' W 002°60'0 0.0
2018-Jan-19 02:00N 53°26' W 002°60'0 0.0
2018-Jan-19 01:30N 53°26' W 002°60'0 0.0
2018-Jan-19 01:00N 53°26' W 002°60'0 0.0
2018-Jan-19 00:30N 53°26' W 002°60'0 0.0
2018-Jan-19 00:01N 53°26' W 002°60'0 0.0
2018-Jan-18 23:30N 53°26' W 002°60'0 0.0
2018-Jan-18 23:00N 53°26' W 002°60'0 0.0
2018-Jan-18 22:30N 53°26' W 002°60'0 0.0
2018-Jan-18 22:01N 53°26' W 002°60'0 0.0
2018-Jan-18 21:30N 53°26' W 002°60'0 0.0
2018-Jan-18 21:00N 53°26' W 002°60'0 0.0
2018-Jan-18 20:30N 53°26' W 002°60'0 0.0
2018-Jan-18 20:00N 53°26' W 002°60'0 0.0
2018-Jan-18 19:30N 53°26' W 002°60'0 0.0
2018-Jan-18 19:00N 53°26' W 002°60'0 0.0
2018-Jan-18 18:29N 53°26' W 002°60'0 0.0
2018-Jan-18 17:58N 53°26' W 002°60'0 0.0
2018-Jan-18 17:30N 53°26' W 002°60'0 0.0
2018-Jan-18 17:00N 53°26' W 002°60'0 0.0
2018-Jan-18 16:30N 53°26' W 002°60'0 0.0
2018-Jan-18 16:00N 53°26' W 002°60'0 0.0
2018-Jan-18 15:31N 53°26' W 002°60'0 0.0
2018-Jan-18 14:59N 53°26' W 002°60'0 0.0
2018-Jan-18 14:30N 53°26' W 002°60'0 0.0
2018-Jan-18 14:00N 53°26' W 002°60'0 0.0
2018-Jan-18 13:30N 53°26' W 002°60'0 0.0
2018-Jan-18 13:01N 53°26' W 002°60'0 0.0
2018-Jan-18 12:30N 53°26' W 002°60'0 0.0
2018-Jan-18 12:00N 53°26' W 002°60'0 0.0
2018-Jan-18 11:31N 53°26' W 002°60'0 0.0
2018-Jan-18 11:00N 53°26' W 002°60'0 0.0
2018-Jan-18 10:30N 53°26' W 002°60'0 0.0
2018-Jan-18 10:00N 53°26' W 002°60'0 0.0
2018-Jan-18 09:30N 53°26' W 002°60'2 4.0
2018-Jan-18 09:00N 53°28' W 003°02'1 1.3
2018-Jan-18 08:30N 53°27' W 003°01'0 0.4
2018-Jan-18 08:00N 53°27' W 003°01'2 3.1
2018-Jan-18 07:30N 53°28' W 003°03'2 4.1
2018-Jan-18 07:00N 53°26' W 003°01'0 0.2
2018-Jan-18 06:30N 53°26' W 003°01'0 0.3
2018-Jan-18 06:00N 53°27' W 003°00'1 1.3
2018-Jan-18 05:29N 53°27' W 003°01'0 0.4
2018-Jan-18 05:00N 53°27' W 003°01'0 0.2
2018-Jan-18 04:30N 53°27' W 003°01'0 0.2
2018-Jan-18 04:00N 53°27' W 003°01'0 0.4
2018-Jan-18 03:30N 53°27' W 003°01'0 0.0
2018-Jan-18 03:00N 53°27' W 003°01'0 0.0
2018-Jan-18 02:30N 53°27' W 003°01'0 0.0
2018-Jan-18 02:00N 53°27' W 003°01'0 0.0
2018-Jan-18 01:30N 53°27' W 003°01'0 0.0
2018-Jan-18 01:00N 53°27' W 003°01'1 0.9
2018-Jan-18 00:00N 53°26' W 003°01'0 0.0
2018-Jan-17 23:57N 53°26' W 003°01'  
2018-Jan-12 14:59N 53°26' W 002°60'0 0.0
2018-Jan-12 14:30N 53°26' W 002°60'0 0.0
2018-Jan-12 14:00N 53°26' W 002°60'0 0.0
2018-Jan-12 13:30N 53°26' W 002°60'0 0.0
2018-Jan-12 13:00N 53°26' W 002°60'0 0.0
2018-Jan-12 12:30N 53°26' W 002°60'0 0.0
2018-Jan-12 12:00N 53°26' W 002°60'0 0.0
2018-Jan-12 11:30N 53°26' W 002°60'0 0.0
2018-Jan-12 10:59N 53°26' W 002°60'2 3.5
2018-Jan-12 10:30N 53°27' W 003°01'0 0.3
2018-Jan-12 10:00N 53°27' W 003°01'0 0.3
2018-Jan-12 09:30N 53°27' W 003°01'1 2.5
2018-Jan-12 08:59N 53°26' W 003°01'611.7
2018-Jan-12 08:29N 53°20' W 002°57'0 0.3
2018-Jan-12 08:00N 53°20' W 002°57'3 6.7
2018-Jan-12 07:30N 53°23' W 003°00'1 3.0
2018-Jan-12 07:00N 53°24' W 003°01'2 3.8
2018-Jan-12 06:30N 53°26' W 003°01'1 1.3
2018-Jan-12 06:00N 53°26' W 002°60'0 0.0
2018-Jan-12 05:30N 53°26' W 002°60'0 0.0
2018-Jan-12 05:00N 53°26' W 002°60'0 0.0
2018-Jan-12 04:30N 53°26' W 002°60'0 0.0
2018-Jan-12 04:00N 53°26' W 002°60'0 0.0
2018-Jan-12 03:30N 53°26' W 002°60'0 0.0
2018-Jan-12 03:00N 53°26' W 002°60'0 0.0
2018-Jan-12 02:30N 53°26' W 002°60'0 0.0
2018-Jan-12 02:00N 53°26' W 002°60'0 0.0
2018-Jan-12 01:29N 53°26' W 002°60'0 0.0
2018-Jan-12 01:00N 53°26' W 002°60'0 0.0
2018-Jan-12 00:30N 53°26' W 002°60'0 0.0
2018-Jan-12 00:00N 53°26' W 002°60'0 0.6
2018-Jan-11 23:30N 53°26' W 003°00'0 0.1
2018-Jan-11 23:00N 53°26' W 003°00'0 0.5
2018-Jan-11 22:30N 53°26' W 003°00'0 0.3
2018-Jan-11 22:01N 53°26' W 003°00'1 1.0
2018-Jan-11 21:30N 53°26' W 002°60'0 0.0
2018-Jan-11 21:00N 53°26' W 002°60'0 0.0
2018-Jan-11 20:30N 53°26' W 002°60'0 0.0
2018-Jan-11 20:00N 53°26' W 002°60'0 0.0
2018-Jan-11 19:30N 53°26' W 002°60'0 0.0
2018-Jan-11 19:00N 53°26' W 002°60'0 0.0
2018-Jan-11 18:30N 53°26' W 002°60'0 0.0
2018-Jan-11 18:00N 53°26' W 002°60'0 0.0
2018-Jan-11 17:30N 53°26' W 002°60'0 0.0
2018-Jan-11 17:00N 53°26' W 002°60'0 0.0
2018-Jan-11 16:30N 53°26' W 002°60'0 0.0
2018-Jan-11 16:00N 53°26' W 002°60'0 0.0
2018-Jan-11 15:30N 53°26' W 002°60'0 0.0
2018-Jan-11 15:00N 53°26' W 002°60'0 0.0
2018-Jan-11 14:30N 53°26' W 002°60'0 0.0
2018-Jan-11 14:00N 53°26' W 002°60'0 0.0
2018-Jan-11 13:30N 53°26' W 002°60'0 0.0
2018-Jan-11 13:00N 53°26' W 002°60'0 0.0
2018-Jan-11 12:29N 53°26' W 002°60'0 0.0
2018-Jan-11 11:59N 53°26' W 002°60'0 0.0
2018-Jan-11 11:30N 53°26' W 002°60'0 0.0
2018-Jan-11 11:00N 53°26' W 002°60'0 0.0
2018-Jan-11 10:30N 53°26' W 002°60'0 0.0
2018-Jan-11 10:00N 53°26' W 002°60'0 0.0
2018-Jan-11 09:30N 53°26' W 002°60'0 0.0
2018-Jan-11 09:00N 53°26' W 002°60'0 0.0
2018-Jan-11 08:30N 53°26' W 002°60'0 0.0
2018-Jan-11 08:00N 53°26' W 002°60'0 0.0
2018-Jan-11 07:30N 53°26' W 002°60'0 0.0
2018-Jan-11 07:00N 53°26' W 002°60'0 0.0
2018-Jan-11 06:30N 53°26' W 002°60'0 0.0
2018-Jan-11 05:59N 53°26' W 002°60'0 0.0
2018-Jan-11 05:30N 53°26' W 002°60'0 0.0
2018-Jan-11 05:00N 53°26' W 002°60'0 0.0
2018-Jan-11 04:30N 53°26' W 002°60'0 0.0
2018-Jan-11 04:00N 53°26' W 002°60'0 0.0
2018-Jan-11 03:30N 53°26' W 002°60'0 0.0
2018-Jan-11 03:00N 53°26' W 002°60'0 0.0
2018-Jan-11 02:30N 53°26' W 002°60'0 0.0
2018-Jan-11 02:00N 53°26' W 002°60'0 0.0
2018-Jan-11 01:30N 53°26' W 002°60'0 0.0
2018-Jan-11 01:00N 53°26' W 002°60'0 0.0
2018-Jan-11 00:30N 53°26' W 002°60'0 0.0
2018-Jan-11 00:00N 53°26' W 002°60'0 0.0
2018-Jan-10 23:30N 53°26' W 002°60'0 0.0
2018-Jan-10 23:00N 53°26' W 002°60'0 0.0
2018-Jan-10 22:30N 53°26' W 002°60'0 0.0
2018-Jan-10 22:00N 53°26' W 002°60'0 0.0
2018-Jan-10 21:30N 53°26' W 002°60'0 0.0
2018-Jan-10 20:59N 53°26' W 002°60'0 0.0
2018-Jan-10 20:30N 53°26' W 002°60'0 0.0
2018-Jan-10 20:00N 53°26' W 002°60'0 0.0
2018-Jan-10 19:30N 53°26' W 002°60'0 0.0
2018-Jan-10 19:00N 53°26' W 002°60'0 0.0
2018-Jan-10 18:30N 53°26' W 002°60'0 0.0
2018-Jan-10 18:00N 53°26' W 002°60'0 0.0
2018-Jan-10 17:30N 53°26' W 002°60'0 0.0
2018-Jan-10 17:00N 53°26' W 002°60'0 0.8
2018-Jan-10 16:31N 53°26' W 003°00'0 1.0
2018-Jan-10 16:00N 53°27' W 003°01'0 0.4
2018-Jan-10 15:30N 53°27' W 003°00'0 0.7
2018-Jan-10 15:00N 53°26' W 003°00'0 0.0
2018-Jan-10 14:31N 53°26' W 003°00'0 0.8
2018-Jan-10 14:00N 53°26' W 002°60'0 0.0
2018-Jan-10 13:30N 53°26' W 002°60'0 0.0
2018-Jan-10 13:00N 53°26' W 002°60'0 0.0
2018-Jan-10 12:30N 53°26' W 002°60'0 0.0
2018-Jan-10 12:00N 53°26' W 002°60'0 0.0
2018-Jan-10 11:30N 53°26' W 002°60'0 0.0
2018-Jan-10 11:00N 53°26' W 002°60'0 0.0
2018-Jan-10 10:30N 53°26' W 002°60'0 0.0
2018-Jan-10 10:00N 53°26' W 002°60'0 0.0
2018-Jan-10 09:30N 53°26' W 002°60'0 0.0
2018-Jan-10 09:00N 53°26' W 002°60'0 0.0
2018-Jan-10 08:30N 53°26' W 002°60'0 0.0
2018-Jan-10 08:00N 53°26' W 002°60'0 0.0
2018-Jan-10 07:30N 53°26' W 002°60'1 3.0
2018-Jan-10 07:00N 53°27' W 003°01'1 1.2
2018-Jan-10 06:30N 53°28' W 003°02'1 1.3
2018-Jan-10 06:00N 53°27' W 003°01'0 0.3
2018-Jan-10 05:30N 53°27' W 003°01'0 0.5
2018-Jan-10 05:00N 53°27' W 003°01'2 4.3
2018-Jan-10 04:30N 53°28' W 003°04'1 1.7
2018-Jan-10 04:00N 53°28' W 003°03'1 2.4
2018-Jan-10 03:30N 53°27' W 003°01'0 0.0
2018-Jan-10 03:00N 53°27' W 003°01'0 0.5
2018-Jan-10 02:30N 53°27' W 003°01'0 0.7
2018-Jan-10 02:00N 53°27' W 003°01'1 1.5
2018-Jan-10 01:30N 53°26' W 003°00'0 0.6
2018-Jan-10 01:00N 53°26' W 003°00'0 0.3
2018-Jan-10 00:30N 53°26' W 002°60'0 0.0
2018-Jan-10 00:00N 53°26' W 002°60'0 0.0
2018-Jan-09 23:30N 53°26' W 002°60'0 0.0
2018-Jan-09 23:00N 53°26' W 002°60'0 0.0
2018-Jan-09 22:30N 53°26' W 002°60'0 0.0
2018-Jan-09 22:00N 53°26' W 002°60'0 0.0
2018-Jan-09 21:30N 53°26' W 002°60'0 0.0
2018-Jan-09 21:00N 53°26' W 002°60'0 0.0
2018-Jan-09 20:30N 53°26' W 002°60'0 0.0
2018-Jan-09 20:00N 53°26' W 002°60'0 0.0
2018-Jan-09 19:30N 53°26' W 002°60'0 0.0
2018-Jan-09 19:00N 53°26' W 002°60'0 0.0
2018-Jan-09 18:30N 53°26' W 002°60'0 0.0
2018-Jan-09 18:00N 53°26' W 002°60'0 0.0
2018-Jan-09 17:30N 53°26' W 002°60'0 0.0
2018-Jan-09 17:00N 53°26' W 002°60'0 0.0
2018-Jan-09 16:30N 53°26' W 002°60'0 0.0
2018-Jan-09 16:00N 53°26' W 002°60'0 0.0
2018-Jan-09 15:30N 53°26' W 002°60'  
Track history (hours):
 
Tides and Currents Weather Stations Pressure Air Temp Water Temp Dewpoint Dewpoint Depression Visibility Wind Speed Wind Dir Waves Ship Positions

Smit Barbados

Last reported at 2018-Jan-19 15:30 UTC. Time now 2018-Jan-19 15:44 UTC.
Position N 53°26' W 002°60'.

Length 30 m; draft 4.8 m.

Type: Tug. MMSI: 235055303.

Date/timePositionNaut miles runAvg speedWind from/ knotsBaromVisibWave heightAir tempDewpointWater temp
2018-Jan-19 15:30N 53°26' W 002°60'0 0.0
2018-Jan-19 15:00N 53°26' W 002°60'0 0.0
2018-Jan-19 14:30N 53°26' W 002°60'0 0.0
2018-Jan-19 14:00N 53°26' W 002°60'0 0.0
2018-Jan-19 13:30N 53°26' W 002°60'0 0.0
2018-Jan-19 13:00N 53°26' W 002°60'0 0.0
2018-Jan-19 12:29N 53°26' W 002°60'0 0.0
2018-Jan-19 11:59N 53°26' W 002°60'0 0.0
2018-Jan-19 11:30N 53°26' W 002°60'0 0.0
2018-Jan-19 11:00N 53°26' W 002°60'0 0.0
2018-Jan-19 10:30N 53°26' W 002°60'0 0.0
2018-Jan-19 10:01N 53°26' W 002°60'0 0.0
2018-Jan-19 09:31N 53°26' W 002°60'0 0.0
2018-Jan-19 09:00N 53°26' W 002°60'0 0.0
2018-Jan-19 08:30N 53°26' W 002°60'0 0.0
2018-Jan-19 08:00N 53°26' W 002°60'0 0.0
2018-Jan-19 07:30N 53°26' W 002°60'0 0.0
2018-Jan-19 07:00N 53°26' W 002°60'0 0.0
2018-Jan-19 06:30N 53°26' W 002°60'0 0.0
2018-Jan-19 05:58N 53°26' W 002°60'0 0.0
2018-Jan-19 05:30N 53°26' W 002°60'0 0.0
2018-Jan-19 05:01N 53°26' W 002°60'0 0.0
2018-Jan-19 04:31N 53°26' W 002°60'0 0.0
2018-Jan-19 04:00N 53°26' W 002°60'0 0.0
2018-Jan-19 03:30N 53°26' W 002°60'0 0.0
2018-Jan-19 03:00N 53°26' W 002°60'0 0.0
2018-Jan-19 02:30N 53°26' W 002°60'0 0.0
2018-Jan-19 02:00N 53°26' W 002°60'0 0.0
2018-Jan-19 01:30N 53°26' W 002°60'0 0.0
2018-Jan-19 01:00N 53°26' W 002°60'0 0.0
2018-Jan-19 00:30N 53°26' W 002°60'0 0.0
2018-Jan-19 00:01N 53°26' W 002°60'0 0.0
2018-Jan-18 23:30N 53°26' W 002°60'0 0.0
2018-Jan-18 23:00N 53°26' W 002°60'0 0.0
2018-Jan-18 22:30N 53°26' W 002°60'0 0.0
2018-Jan-18 22:01N 53°26' W 002°60'0 0.0
2018-Jan-18 21:30N 53°26' W 002°60'0 0.0
2018-Jan-18 21:00N 53°26' W 002°60'0 0.0
2018-Jan-18 20:30N 53°26' W 002°60'0 0.0
2018-Jan-18 20:00N 53°26' W 002°60'0 0.0
2018-Jan-18 19:30N 53°26' W 002°60'0 0.0
2018-Jan-18 19:00N 53°26' W 002°60'0 0.0
2018-Jan-18 18:29N 53°26' W 002°60'0 0.0
2018-Jan-18 17:58N 53°26' W 002°60'0 0.0
2018-Jan-18 17:30N 53°26' W 002°60'0 0.0
2018-Jan-18 17:00N 53°26' W 002°60'0 0.0
2018-Jan-18 16:30N 53°26' W 002°60'0 0.0
2018-Jan-18 16:00N 53°26' W 002°60'0 0.0
2018-Jan-18 15:31N 53°26' W 002°60'0 0.0
2018-Jan-18 14:59N 53°26' W 002°60'0 0.0
2018-Jan-18 14:30N 53°26' W 002°60'0 0.0
2018-Jan-18 14:00N 53°26' W 002°60'0 0.0
2018-Jan-18 13:30N 53°26' W 002°60'0 0.0
2018-Jan-18 13:01N 53°26' W 002°60'0 0.0
2018-Jan-18 12:30N 53°26' W 002°60'0 0.0
2018-Jan-18 12:00N 53°26' W 002°60'0 0.0
2018-Jan-18 11:31N 53°26' W 002°60'0 0.0
2018-Jan-18 11:00N 53°26' W 002°60'0 0.0
2018-Jan-18 10:30N 53°26' W 002°60'0 0.0
2018-Jan-18 10:00N 53°26' W 002°60'0 0.0
2018-Jan-18 09:30N 53°26' W 002°60'2 4.0
2018-Jan-18 09:00N 53°28' W 003°02'1 1.3
2018-Jan-18 08:30N 53°27' W 003°01'0 0.4
2018-Jan-18 08:00N 53°27' W 003°01'2 3.1
2018-Jan-18 07:30N 53°28' W 003°03'2 4.1
2018-Jan-18 07:00N 53°26' W 003°01'0 0.2
2018-Jan-18 06:30N 53°26' W 003°01'0 0.3
2018-Jan-18 06:00N 53°27' W 003°00'1 1.3
2018-Jan-18 05:29N 53°27' W 003°01'0 0.4
2018-Jan-18 05:00N 53°27' W 003°01'0 0.2
2018-Jan-18 04:30N 53°27' W 003°01'0 0.2
2018-Jan-18 04:00N 53°27' W 003°01'0 0.4
2018-Jan-18 03:30N 53°27' W 003°01'0 0.0
2018-Jan-18 03:00N 53°27' W 003°01'0 0.0
2018-Jan-18 02:30N 53°27' W 003°01'0 0.0
2018-Jan-18 02:00N 53°27' W 003°01'0 0.0
2018-Jan-18 01:30N 53°27' W 003°01'0 0.0
2018-Jan-18 01:00N 53°27' W 003°01'1 0.9
2018-Jan-18 00:00N 53°26' W 003°01'0 0.0
2018-Jan-17 23:57N 53°26' W 003°01'  
2018-Jan-12 14:59N 53°26' W 002°60'0 0.0
2018-Jan-12 14:30N 53°26' W 002°60'0 0.0
2018-Jan-12 14:00N 53°26' W 002°60'0 0.0
2018-Jan-12 13:30N 53°26' W 002°60'0 0.0
2018-Jan-12 13:00N 53°26' W 002°60'0 0.0
2018-Jan-12 12:30N 53°26' W 002°60'0 0.0
2018-Jan-12 12:00N 53°26' W 002°60'0 0.0
2018-Jan-12 11:30N 53°26' W 002°60'0 0.0
2018-Jan-12 10:59N 53°26' W 002°60'2 3.5
2018-Jan-12 10:30N 53°27' W 003°01'0 0.3
2018-Jan-12 10:00N 53°27' W 003°01'0 0.3
2018-Jan-12 09:30N 53°27' W 003°01'1 2.5
2018-Jan-12 08:59N 53°26' W 003°01'611.7
2018-Jan-12 08:29N 53°20' W 002°57'0 0.3
2018-Jan-12 08:00N 53°20' W 002°57'3 6.7
2018-Jan-12 07:30N 53°23' W 003°00'1 3.0
2018-Jan-12 07:00N 53°24' W 003°01'2 3.8
2018-Jan-12 06:30N 53°26' W 003°01'1 1.3
2018-Jan-12 06:00N 53°26' W 002°60'0 0.0
2018-Jan-12 05:30N 53°26' W 002°60'0 0.0
2018-Jan-12 05:00N 53°26' W 002°60'0 0.0
2018-Jan-12 04:30N 53°26' W 002°60'0 0.0
2018-Jan-12 04:00N 53°26' W 002°60'0 0.0
2018-Jan-12 03:30N 53°26' W 002°60'0 0.0
2018-Jan-12 03:00N 53°26' W 002°60'0 0.0
2018-Jan-12 02:30N 53°26' W 002°60'0 0.0
2018-Jan-12 02:00N 53°26' W 002°60'0 0.0
2018-Jan-12 01:29N 53°26' W 002°60'0 0.0
2018-Jan-12 01:00N 53°26' W 002°60'0 0.0
2018-Jan-12 00:30N 53°26' W 002°60'0 0.0
2018-Jan-12 00:00N 53°26' W 002°60'0 0.6
2018-Jan-11 23:30N 53°26' W 003°00'0 0.1
2018-Jan-11 23:00N 53°26' W 003°00'0 0.5
2018-Jan-11 22:30N 53°26' W 003°00'0 0.3
2018-Jan-11 22:01N 53°26' W 003°00'1 1.0
2018-Jan-11 21:30N 53°26' W 002°60'0 0.0
2018-Jan-11 21:00N 53°26' W 002°60'0 0.0
2018-Jan-11 20:30N 53°26' W 002°60'0 0.0
2018-Jan-11 20:00N 53°26' W 002°60'0 0.0
2018-Jan-11 19:30N 53°26' W 002°60'0 0.0
2018-Jan-11 19:00N 53°26' W 002°60'0 0.0
2018-Jan-11 18:30N 53°26' W 002°60'0 0.0
2018-Jan-11 18:00N 53°26' W 002°60'0 0.0
2018-Jan-11 17:30N 53°26' W 002°60'0 0.0
2018-Jan-11 17:00N 53°26' W 002°60'0 0.0
2018-Jan-11 16:30N 53°26' W 002°60'0 0.0
2018-Jan-11 16:00N 53°26' W 002°60'0 0.0
2018-Jan-11 15:30N 53°26' W 002°60'0 0.0
2018-Jan-11 15:00N 53°26' W 002°60'0 0.0
2018-Jan-11 14:30N 53°26' W 002°60'0 0.0
2018-Jan-11 14:00N 53°26' W 002°60'0 0.0
2018-Jan-11 13:30N 53°26' W 002°60'0 0.0
2018-Jan-11 13:00N 53°26' W 002°60'0 0.0
2018-Jan-11 12:29N 53°26' W 002°60'0 0.0
2018-Jan-11 11:59N 53°26' W 002°60'0 0.0
2018-Jan-11 11:30N 53°26' W 002°60'0 0.0
2018-Jan-11 11:00N 53°26' W 002°60'0 0.0
2018-Jan-11 10:30N 53°26' W 002°60'0 0.0
2018-Jan-11 10:00N 53°26' W 002°60'0 0.0
2018-Jan-11 09:30N 53°26' W 002°60'0 0.0
2018-Jan-11 09:00N 53°26' W 002°60'0 0.0
2018-Jan-11 08:30N 53°26' W 002°60'0 0.0
2018-Jan-11 08:00N 53°26' W 002°60'0 0.0
2018-Jan-11 07:30N 53°26' W 002°60'0 0.0
2018-Jan-11 07:00N 53°26' W 002°60'0 0.0
2018-Jan-11 06:30N 53°26' W 002°60'0 0.0
2018-Jan-11 05:59N 53°26' W 002°60'0 0.0
2018-Jan-11 05:30N 53°26' W 002°60'0 0.0
2018-Jan-11 05:00N 53°26' W 002°60'0 0.0
2018-Jan-11 04:30N 53°26' W 002°60'0 0.0
2018-Jan-11 04:00N 53°26' W 002°60'0 0.0
2018-Jan-11 03:30N 53°26' W 002°60'0 0.0
2018-Jan-11 03:00N 53°26' W 002°60'0 0.0
2018-Jan-11 02:30N 53°26' W 002°60'0 0.0
2018-Jan-11 02:00N 53°26' W 002°60'0 0.0
2018-Jan-11 01:30N 53°26' W 002°60'0 0.0
2018-Jan-11 01:00N 53°26' W 002°60'0 0.0
2018-Jan-11 00:30N 53°26' W 002°60'0 0.0
2018-Jan-11 00:00N 53°26' W 002°60'0 0.0
2018-Jan-10 23:30N 53°26' W 002°60'0 0.0
2018-Jan-10 23:00N 53°26' W 002°60'0 0.0
2018-Jan-10 22:30N 53°26' W 002°60'0 0.0
2018-Jan-10 22:00N 53°26' W 002°60'0 0.0
2018-Jan-10 21:30N 53°26' W 002°60'0 0.0
2018-Jan-10 20:59N 53°26' W 002°60'0 0.0
2018-Jan-10 20:30N 53°26' W 002°60'0 0.0
2018-Jan-10 20:00N 53°26' W 002°60'0 0.0
2018-Jan-10 19:30N 53°26' W 002°60'0 0.0
2018-Jan-10 19:00N 53°26' W 002°60'0 0.0
2018-Jan-10 18:30N 53°26' W 002°60'0 0.0
2018-Jan-10 18:00N 53°26' W 002°60'0 0.0
2018-Jan-10 17:30N 53°26' W 002°60'0 0.0
2018-Jan-10 17:00N 53°26' W 002°60'0 0.8
2018-Jan-10 16:31N 53°26' W 003°00'0 1.0
2018-Jan-10 16:00N 53°27' W 003°01'0 0.4
2018-Jan-10 15:30N 53°27' W 003°00'0 0.7
2018-Jan-10 15:00N 53°26' W 003°00'0 0.0
2018-Jan-10 14:31N 53°26' W 003°00'0 0.8
2018-Jan-10 14:00N 53°26' W 002°60'0 0.0
2018-Jan-10 13:30N 53°26' W 002°60'0 0.0
2018-Jan-10 13:00N 53°26' W 002°60'0 0.0
2018-Jan-10 12:30N 53°26' W 002°60'0 0.0
2018-Jan-10 12:00N 53°26' W 002°60'0 0.0
2018-Jan-10 11:30N 53°26' W 002°60'0 0.0
2018-Jan-10 11:00N 53°26' W 002°60'0 0.0
2018-Jan-10 10:30N 53°26' W 002°60'0 0.0
2018-Jan-10 10:00N 53°26' W 002°60'0 0.0
2018-Jan-10 09:30N 53°26' W 002°60'0 0.0
2018-Jan-10 09:00N 53°26' W 002°60'0 0.0
2018-Jan-10 08:30N 53°26' W 002°60'0 0.0
2018-Jan-10 08:00N 53°26' W 002°60'0 0.0
2018-Jan-10 07:30N 53°26' W 002°60'1 3.0
2018-Jan-10 07:00N 53°27' W 003°01'1 1.2
2018-Jan-10 06:30N 53°28' W 003°02'1 1.3
2018-Jan-10 06:00N 53°27' W 003°01'0 0.3
2018-Jan-10 05:30N 53°27' W 003°01'0 0.5
2018-Jan-10 05:00N 53°27' W 003°01'2 4.3
2018-Jan-10 04:30N 53°28' W 003°04'1 1.7
2018-Jan-10 04:00N 53°28' W 003°03'1 2.4
2018-Jan-10 03:30N 53°27' W 003°01'0 0.0
2018-Jan-10 03:00N 53°27' W 003°01'0 0.5
2018-Jan-10 02:30N 53°27' W 003°01'0 0.7
2018-Jan-10 02:00N 53°27' W 003°01'1 1.5
2018-Jan-10 01:30N 53°26' W 003°00'0 0.6
2018-Jan-10 01:00N 53°26' W 003°00'0 0.3
2018-Jan-10 00:30N 53°26' W 002°60'0 0.0
2018-Jan-10 00:00N 53°26' W 002°60'0 0.0
2018-Jan-09 23:30N 53°26' W 002°60'0 0.0
2018-Jan-09 23:00N 53°26' W 002°60'0 0.0
2018-Jan-09 22:30N 53°26' W 002°60'0 0.0
2018-Jan-09 22:00N 53°26' W 002°60'0 0.0
2018-Jan-09 21:30N 53°26' W 002°60'0 0.0
2018-Jan-09 21:00N 53°26' W 002°60'0 0.0
2018-Jan-09 20:30N 53°26' W 002°60'0 0.0
2018-Jan-09 20:00N 53°26' W 002°60'0 0.0
2018-Jan-09 19:30N 53°26' W 002°60'0 0.0
2018-Jan-09 19:00N 53°26' W 002°60'0 0.0
2018-Jan-09 18:30N 53°26' W 002°60'0 0.0
2018-Jan-09 18:00N 53°26' W 002°60'0 0.0
2018-Jan-09 17:30N 53°26' W 002°60'0 0.0
2018-Jan-09 17:00N 53°26' W 002°60'0 0.0
2018-Jan-09 16:30N 53°26' W 002°60'0 0.0
2018-Jan-09 16:00N 53°26' W 002°60'0 0.0
2018-Jan-09 15:30N 53°26' W 002°60'  

Dump ship's entire track history